Jamesport, MO (64648)

11:37 PM CDT on July 31, 2014 (GMT -0500)
Big Rock (KMOTRENT5) Elev 814 ft | 40.06 °N, 93.64 °W | Change Station

Current weather conditions updated 8 minutes ago

Mostly Cloudy
Mostly Cloudy
64.9 °F
Feels Like 64.9 °F
N
1.7
Wind Variable Wind from West

Tomorrow is forecast to be Much Cooler than today.

Today
High -- | Low -- °F
--% Chance of Precip.
Yesterday
High -- | Low -- °F
Precip. -- in
6:12 AM 8:29 PM
Waxing Crescent, 23% visible
Pressure 30.04 in
Visibility 10.0 miles
Clouds Few 10000 ft
Mostly Cloudy 11000 ft
Dew Point 61 °F
Humidity 88%
Rainfall 0.00 in
Snow Depth Not available.
UV 0 out of 12
Pollen 6.30 out of 12
Air Quality Not available.
Flu Activity Not available.
METAR KLWD 010353Z AUTO 21003KT 10SM FEW100 BKN110 20/14 A3006 RMK AO2 SLP173 T02000139

More Conditions Fewer Conditions

Pressure 30.04 in
Visibility 10.0 miles
Clouds Few 10000 ft
Mostly Cloudy 11000 ft
Dew Point 61 °F
Humidity 88%
Rainfall 0.00 in
Snow Depth Not available.
UV 0 out of 12
Pollen 6.30 out of 12
Air Quality Not available.
Flu Activity Not available.
METAR KLWD 010353Z AUTO 21003KT 10SM FEW100 BKN110 20/14 A3006 RMK AO2 SLP173 T02000139

More Conditions Fewer Conditions

10-Day Weather Forecast

Almanac

Astronomy

Jul. 31, 2014 Rise Set
Actual Time 6:12 AM CDT 8:29 PM CDT
Civil Twilight 5:42 AM CDT 9:00 PM CDT
Nautical Twilight 5:04 AM CDT 9:37 PM CDT
Astronomical Twilight 4:23 AM CDT 10:18 PM CDT
Moon 10:40 AM CDT (7/31) 10:43 PM CDT (7/31)
Length of Visible Light 15h 17m
Length of Day
14h 17m
Tomorrow will be 1m 59s shorter.
Waxing Crescent, 23% of the Moon is Illuminated
Aug 1
Waxing Crescent
Aug 3
First Quarter
Aug 10
Full
Aug 17
Last Quarter
Aug 25
New

Today's Extremes

State Highs State Lows

Community

WunderPhotos

Upload Photos

1,739,510 photos uploaded!

Nearby

Snow Depth

Station Depth Elevation
No new snow has been reported.

Earthquake Activity

City Distance Mag. Time & Date
No recent earthquake activity has been reported nearby.
Minimum magnitude displayed is 2.5.

Coastal Water Temperatures

Place Temperature
No Stations Reporting

Nearby Weather Stations

Station Location Temp. Heat Index Dew Point Humidity Wind Precip. Elev Updated Type
MesoWest COBURN , Jamesport, MO 63 °F - - - North  at  - 0.00 in / hr 901 ft 10:10 PM CDT MADIS
Big Rock, Trenton, MO 64.9 °F - 61 °F 88% West  at  1.7 mph - / hr 814 ft 11:28 PM CDT Normal
trenton mo, Trenton, MO 67.3 °F - 62 °F 82% South  at  0.0 mph 0.00 in / hr 850 ft 11:36 PM CDT Rapid Fire
Northwest Chillicothe, Chillicothe, MO 70.9 °F 74 °F 60 °F 69% SE  at  0.0 mph 0.00 in / hr 843 ft 11:37 PM CDT Rapid Fire
MesoWest SPICKARD , Gilman City, MO 69 °F - 54 °F 59% ENE  at  1 mph 0.00 in / hr 911 ft 10:00 PM CDT MADIS
MesoWest NETTLE , Hamilton, MO 79 °F 77 °F - - North  at  - 0.00 in / hr 772 ft 8:00 PM CDT MADIS

Show More Stations Show Fewer Stations